Carneys Point, New Jersey
Current Conditions -  °F | °C
As of 4:51 PM on Sunday 23 Nov 2014 (Local Time) from KILG Reporting Station
Clear Clear  
Wind Chill: 51°   Ceiling: Unl
Heat Index: 51°   Visibility: 10mi
Dew Point: 29°   Wind: 5mph
Humidity: 43%   Direction: 150°SSE
Pressure: 30.13"   Gusts: NA
Location:  39.6981°N, 75.4502°W
Report Text: KILG 232151Z 15004KT 10SM CLR 11/M02 A3013 RMK AO2 SLP201 T01061017
Loading
Personal Weather Stations






























Interactive Weather Map New forecast layout! Learn more

10-Day Weather Forecast

Advertisements
Track Severe Weather on mobile